Portada
METAR-TAF:

METAR-TAF

Aeroports :

Hanoi, Vietnam

latitud: 21-01N, longitud: 105-48E, altitud: 6 m

Observació

L'informe es va fer fa 43 minuts, a les 08:00 UTC
Vent 11 kt del Oest
Temperatura 37°C
Humitat 40%
Pressió 998 hPa
Visibilitat 10 km o més
sense núvols per sota de 1500 mi sense presència de cumulonimbus.

METAR: VVNB 090800Z 26011KT CAVOK 37/21 Q0998 NOSIG

Hora: 15:43 (08:43 UTC)

Pronòstic

L'informe es va fer fa 3 hores i 43 minuts, a les 05:00 UTC
Pronòstic vàlid del 09 a les 06 UTC al 10 a les 06 UTC
Vent 12 kt del Oest/Sud-Oest
Visibilitat 10 km o més
Escasses núvols a una alçada de 3000 ft
Evolucionant progressivament
l' 09 a les 09 UTC al 09 a les 11 UTC
Vent 12 kt del Sud-Est
Temporalment
l' 09 a les 11 UTC al 09 a les 15 UTC
Visibilitat: 4000 m
Núvols disperses a una alçada de 1500 ft
Escasses núvols a una alçada de 2700 ft, Cumulonimbus.
tempesta, pluja

TAF: VVNB 090500Z 0906/1006 25012KT 9999 FEW030 BECMG 0909/0911 14012KT TEMPO 0911/0915 4000 TSRA SCT015 FEW027CB

Observacions i pronòstics meteorològics de més de 4000 aeroports (METAR i TAF).

Les estacions disponibles són els punts grocs i vermells al mapa.

Posi el ratolí al punt desitjat per veure el nom de l'estació.

Feu clic per veure les observacions i els pronòstics meteorològics.

Per canviar el mapa: feu clic els botons verds amb una creu de color negre per apropar; al botó verd amb un guió per allunyar la imatge; o en les fletxes verdes per a mapes adjacents.


METAR-TAF: